createdAt,value
2022-12-17T00:01:20.889Z,-5.45
2022-12-17T00:04:06.310Z,-5.44
2022-12-17T00:06:51.669Z,-5.47
2022-12-17T00:09:37.115Z,-5.50
2022-12-17T00:12:22.393Z,-5.37
2022-12-17T00:15:07.776Z,-5.47
2022-12-17T00:17:52.972Z,-5.40
2022-12-17T00:20:39.166Z,-5.44
2022-12-17T00:23:24.617Z,-5.49
2022-12-17T00:26:10.825Z,-5.30
2022-12-17T00:28:56.306Z,-5.31
2022-12-17T00:31:42.231Z,-5.48
2022-12-17T00:34:27.469Z,-5.43
2022-12-17T00:37:12.812Z,-5.52
2022-12-17T00:40:14.914Z,-5.53
2022-12-17T00:43:00.288Z,-5.52
2022-12-17T00:45:45.852Z,-5.54
2022-12-17T00:48:31.034Z,-5.58
2022-12-17T00:51:16.404Z,-5.63
2022-12-17T00:54:01.615Z,-5.61
2022-12-17T00:56:46.864Z,-5.54
2022-12-17T00:59:31.984Z,-5.65
2022-12-17T01:02:18.458Z,-5.67
2022-12-17T01:05:04.614Z,-5.65
2022-12-17T01:07:49.841Z,-5.74
2022-12-17T01:10:36.404Z,-5.75
2022-12-17T01:13:21.623Z,-5.63
2022-12-17T01:16:20.441Z,-5.64
2022-12-17T01:19:05.354Z,-5.47
2022-12-17T01:21:50.613Z,-5.45
2022-12-17T01:24:36.308Z,-5.48
2022-12-17T01:27:21.435Z,-5.47
2022-12-17T01:30:06.781Z,-5.42
2022-12-17T01:32:52.099Z,-5.38
2022-12-17T01:35:37.868Z,-5.18
2022-12-17T01:38:32.444Z,-5.31
2022-12-17T01:41:18.300Z,-5.15
2022-12-17T01:44:03.606Z,-5.23
2022-12-17T01:46:52.453Z,-5.23
2022-12-17T01:49:41.258Z,-5.13
2022-12-17T01:52:27.679Z,-5.29
2022-12-17T01:55:12.790Z,-5.26
2022-12-17T01:57:58.096Z,-5.17
2022-12-17T02:00:43.304Z,-5.28
2022-12-17T02:03:36.508Z,-5.26
2022-12-17T02:06:31.175Z,-5.37
2022-12-17T02:09:42.639Z,-5.42
2022-12-17T02:12:49.414Z,-5.37
2022-12-17T02:15:47.660Z,-5.28
2022-12-17T02:18:46.543Z,-5.25
2022-12-17T02:21:32.030Z,-5.19
2022-12-17T02:24:46.689Z,-5.20
2022-12-17T02:27:32.894Z,-5.27
2022-12-17T02:30:23.068Z,-5.01
2022-12-17T02:33:09.418Z,-4.65
2022-12-17T02:36:11.970Z,-4.65
2022-12-17T02:38:57.088Z,-4.84
2022-12-17T02:42:20.509Z,-4.83
2022-12-17T02:45:06.127Z,-4.84
2022-12-17T02:47:51.428Z,-4.80
2022-12-17T02:50:36.725Z,-4.89
2022-12-17T02:53:23.163Z,-4.75
2022-12-17T02:56:08.903Z,-4.91
2022-12-17T02:58:56.376Z,-4.88
2022-12-17T03:01:41.766Z,-5.03
2022-12-17T03:04:27.053Z,-5.02
2022-12-17T03:07:12.514Z,-5.07
2022-12-17T03:09:57.655Z,-5.04
2022-12-17T03:12:43.134Z,-5.12
2022-12-17T03:15:28.413Z,-5.19
2022-12-17T03:18:13.273Z,-5.19
2022-12-17T03:20:58.628Z,-5.30
2022-12-17T03:23:43.824Z,-5.21
2022-12-17T03:26:29.024Z,-5.01
2022-12-17T03:29:14.074Z,-5.13
2022-12-17T03:31:59.009Z,-5.16
2022-12-17T03:34:44.202Z,-5.31
2022-12-17T03:37:29.341Z,-5.30
2022-12-17T03:40:14.587Z,-5.30
2022-12-17T03:42:59.711Z,-5.36
2022-12-17T03:45:44.793Z,-5.36
2022-12-17T03:48:31.437Z,-5.44
2022-12-17T03:51:17.208Z,-5.50
2022-12-17T03:54:03.078Z,-5.41
2022-12-17T03:56:48.638Z,-5.41
2022-12-17T03:59:34.552Z,-5.46
2022-12-17T04:02:19.974Z,-5.53
2022-12-17T04:05:05.519Z,-5.51
2022-12-17T04:07:50.792Z,-5.50
2022-12-17T04:10:36.132Z,-5.59
2022-12-17T04:13:21.293Z,-5.51
2022-12-17T04:16:06.591Z,-5.60
2022-12-17T04:18:51.813Z,-5.64
2022-12-17T04:21:36.988Z,-5.77
2022-12-17T04:24:22.207Z,-5.78
2022-12-17T04:27:07.423Z,-5.86
2022-12-17T04:29:52.518Z,-5.85
2022-12-17T04:32:37.861Z,-5.88
2022-12-17T04:35:23.300Z,-5.90
2022-12-17T04:38:08.687Z,-6.09
2022-12-17T04:40:54.157Z,-6.21
2022-12-17T04:43:39.371Z,-6.15
2022-12-17T04:46:25.067Z,-6.14
2022-12-17T04:49:10.139Z,-6.17
2022-12-17T04:51:55.201Z,-6.08
2022-12-17T04:54:40.378Z,-6.07
2022-12-17T04:57:25.627Z,-6.10
2022-12-17T05:00:10.916Z,-6.08
2022-12-17T05:02:56.358Z,-6.05
2022-12-17T05:05:41.469Z,-6.10
2022-12-17T05:08:26.681Z,-5.88
2022-12-17T05:11:12.020Z,-5.93
2022-12-17T05:13:56.915Z,-6.03
2022-12-17T05:16:42.218Z,-5.87
2022-12-17T05:19:27.355Z,-5.94
2022-12-17T05:22:12.655Z,-5.97
2022-12-17T05:24:57.951Z,-6.07
2022-12-17T05:27:43.183Z,-6.22
2022-12-17T05:30:29.072Z,-6.30
2022-12-17T05:33:22.026Z,-6.27
2022-12-17T05:36:07.894Z,-6.17
2022-12-17T05:38:53.190Z,-6.32
2022-12-17T05:41:38.436Z,-6.32
2022-12-17T05:44:23.887Z,-6.31
2022-12-17T05:47:09.301Z,-6.28
2022-12-17T05:49:54.635Z,-6.38
2022-12-17T05:52:41.918Z,-6.26
2022-12-17T05:55:27.761Z,-6.38
2022-12-17T05:58:27.874Z,-6.37
2022-12-17T06:01:17.728Z,-6.16
2022-12-17T06:04:03.136Z,-6.34
2022-12-17T06:06:48.409Z,-6.52
2022-12-17T06:09:33.827Z,-6.57
2022-12-17T06:12:18.994Z,-6.57
2022-12-17T06:15:03.912Z,-6.59
2022-12-17T06:17:49.539Z,-6.26
2022-12-17T06:20:34.995Z,-6.34
2022-12-17T06:23:25.789Z,-6.48
2022-12-17T06:26:11.475Z,-6.70
2022-12-17T06:28:56.790Z,-6.68
2022-12-17T06:31:41.994Z,-6.79
2022-12-17T06:34:27.709Z,-6.81
2022-12-17T06:37:13.153Z,-6.81
2022-12-17T06:39:58.268Z,-6.96
2022-12-17T06:42:43.532Z,-7.00
2022-12-17T06:45:28.849Z,-7.00
2022-12-17T06:48:25.832Z,-6.97
2022-12-17T06:51:15.221Z,-7.07
2022-12-17T06:54:01.065Z,-7.12
2022-12-17T06:56:46.829Z,-7.21
2022-12-17T06:59:32.233Z,-7.21
2022-12-17T07:02:17.610Z,-7.35
2022-12-17T07:05:02.876Z,-7.34
2022-12-17T07:07:48.254Z,-7.32
2022-12-17T07:10:34.011Z,-7.29
2022-12-17T07:13:24.259Z,-7.35
2022-12-17T07:16:10.211Z,-7.12
2022-12-17T07:18:55.521Z,-7.19
2022-12-17T07:21:40.810Z,-7.21
2022-12-17T07:24:26.033Z,-7.25
2022-12-17T07:27:11.215Z,-7.19
2022-12-17T07:29:56.368Z,-7.25
2022-12-17T07:32:41.550Z,-7.30
2022-12-17T07:35:26.833Z,-7.37
2022-12-17T07:38:19.783Z,-7.40
2022-12-17T07:41:04.985Z,-7.51
2022-12-17T07:43:53.274Z,-7.50
2022-12-17T07:46:39.152Z,-7.54
2022-12-17T07:49:26.111Z,-7.66
2022-12-17T07:52:12.145Z,-7.65
2022-12-17T07:54:57.554Z,-7.67
2022-12-17T07:57:43.265Z,-7.70
2022-12-17T08:00:29.016Z,-7.73
2022-12-17T08:03:17.959Z,-7.68
2022-12-17T08:06:03.745Z,-7.64
2022-12-17T08:08:48.908Z,-7.54
2022-12-17T08:11:34.273Z,-7.61
2022-12-17T08:14:19.736Z,-7.70
2022-12-17T08:17:05.160Z,-7.68
2022-12-17T08:19:50.290Z,-7.80
2022-12-17T08:22:35.624Z,-7.91
2022-12-17T08:25:20.707Z,-7.93
2022-12-17T08:28:11.226Z,-7.95
2022-12-17T08:31:07.702Z,-8.00
2022-12-17T08:33:52.991Z,-8.05
2022-12-17T08:36:38.241Z,-8.07
2022-12-17T08:39:23.444Z,-8.15
2022-12-17T08:42:08.774Z,-8.19
2022-12-17T08:44:54.060Z,-8.24
2022-12-17T08:47:39.332Z,-8.32
2022-12-17T08:50:25.758Z,-8.39
2022-12-17T08:53:21.698Z,-8.42
2022-12-17T08:56:07.420Z,-8.45
2022-12-17T08:58:57.365Z,-8.41
2022-12-17T09:01:44.507Z,-8.30
2022-12-17T09:04:29.876Z,-8.25
2022-12-17T09:07:15.049Z,-8.14
2022-12-17T09:10:00.355Z,-8.10
2022-12-17T09:12:45.398Z,-8.01
2022-12-17T09:15:30.879Z,-7.96
2022-12-17T09:18:16.099Z,-7.91
2022-12-17T09:21:01.428Z,-7.80
2022-12-17T09:23:46.730Z,-7.72
2022-12-17T09:26:31.593Z,-7.70
2022-12-17T09:29:16.925Z,-7.62
2022-12-17T09:32:02.199Z,-7.53
2022-12-17T09:34:47.440Z,-7.44
2022-12-17T09:37:32.781Z,-7.34
2022-12-17T09:40:17.941Z,-7.24
2022-12-17T09:43:08.079Z,-7.31
2022-12-17T09:46:07.782Z,-7.33
2022-12-17T09:49:10.783Z,-7.29
2022-12-17T09:51:56.620Z,-7.26
2022-12-17T09:55:00.966Z,-7.25
2022-12-17T09:57:52.891Z,-7.20
2022-12-17T10:00:40.079Z,-7.14
2022-12-17T10:03:37.074Z,-7.05
2022-12-17T10:06:36.394Z,-7.15
2022-12-17T10:09:28.523Z,-7.10
2022-12-17T10:12:14.677Z,-7.25
2022-12-17T10:14:59.939Z,-7.30
2022-12-17T10:17:45.112Z,-7.26
2022-12-17T10:20:53.244Z,-7.28
2022-12-17T10:23:47.295Z,-7.26
2022-12-17T10:26:41.170Z,-7.27
2022-12-17T10:29:48.091Z,-7.30
2022-12-17T10:32:34.076Z,-7.35
2022-12-17T10:35:40.800Z,-7.39
2022-12-17T10:38:47.398Z,-7.34
2022-12-17T10:41:47.535Z,-7.31
2022-12-17T10:44:42.043Z,-7.27
2022-12-17T10:47:31.955Z,-7.12
2022-12-17T10:50:18.656Z,-7.06
2022-12-17T10:53:05.482Z,-7.00
2022-12-17T10:55:52.153Z,-6.88
2022-12-17T10:58:48.122Z,-6.86
2022-12-17T11:01:42.463Z,-6.85
2022-12-17T11:04:50.413Z,-6.79
2022-12-17T11:07:48.680Z,-6.74
2022-12-17T11:10:45.093Z,-6.62
2022-12-17T11:13:35.178Z,-6.62
2022-12-17T11:16:22.323Z,-6.62
2022-12-17T11:19:09.177Z,-6.60
2022-12-17T11:21:58.742Z,-6.54
2022-12-17T11:24:46.994Z,-6.59
2022-12-17T11:27:37.086Z,-6.61
2022-12-17T11:30:31.231Z,-6.65
2022-12-17T11:33:33.613Z,-6.64
2022-12-17T11:36:52.952Z,-6.64
2022-12-17T11:39:49.384Z,-6.61
2022-12-17T11:42:44.681Z,-6.62
2022-12-17T11:45:48.531Z,-6.62
2022-12-17T11:48:42.824Z,-6.63
2022-12-17T11:51:36.726Z,-6.64
2022-12-17T11:54:36.810Z,-6.62
2022-12-17T11:57:40.314Z,-6.66
2022-12-17T12:00:32.658Z,-6.71
2022-12-17T12:03:41.432Z,-6.74
2022-12-17T12:06:49.259Z,-6.60
2022-12-17T12:10:18.627Z,-6.56
2022-12-17T12:13:09.674Z,-6.50
2022-12-17T12:15:58.091Z,-6.42
2022-12-17T12:18:58.671Z,-6.39
2022-12-17T12:21:57.066Z,-6.30
2022-12-17T12:24:48.820Z,-6.38
2022-12-17T12:27:58.763Z,-6.33
2022-12-17T12:30:48.649Z,-6.20
2022-12-17T12:33:46.152Z,-6.23
2022-12-17T12:36:33.861Z,-6.21
2022-12-17T12:39:18.980Z,-6.00
2022-12-17T12:42:31.539Z,-6.16
2022-12-17T12:45:49.508Z,-6.22
2022-12-17T12:48:40.694Z,-6.30
2022-12-17T12:51:44.984Z,-6.06
2022-12-17T12:54:51.690Z,-6.02
2022-12-17T12:57:47.175Z,-6.06
2022-12-17T13:00:58.630Z,-6.27
2022-12-17T13:03:59.815Z,-6.40
2022-12-17T13:06:45.159Z,-6.53
2022-12-17T13:09:15.046Z,-6.56
2022-12-17T13:11:44.285Z,-6.59
2022-12-17T13:14:17.018Z,-6.64
2022-12-17T13:16:46.810Z,-6.60
2022-12-17T13:19:58.048Z,-6.66
2022-12-17T13:22:27.190Z,-6.69
2022-12-17T13:24:57.809Z,-6.72
2022-12-17T13:27:33.797Z,-6.72
2022-12-17T13:30:15.239Z,-6.71
2022-12-17T13:33:00.342Z,-6.77
2022-12-17T13:35:38.109Z,-6.74
2022-12-17T13:38:07.759Z,-6.71
2022-12-17T13:40:44.089Z,-6.73
2022-12-17T13:43:19.511Z,-6.75
2022-12-17T13:45:46.695Z,-6.47
2022-12-17T13:48:25.112Z,-6.39
2022-12-17T13:51:03.713Z,-6.55
2022-12-17T13:53:34.094Z,-6.61
2022-12-17T13:56:01.170Z,-6.30
2022-12-17T13:58:30.719Z,-6.00
2022-12-17T14:01:06.676Z,-6.13
2022-12-17T14:03:57.045Z,-6.33
2022-12-17T14:06:20.949Z,-6.42
2022-12-17T14:08:49.451Z,-6.51
2022-12-17T14:11:36.120Z,-6.60
2022-12-17T14:14:03.229Z,-6.46
2022-12-17T14:16:30.055Z,-6.55
2022-12-17T14:18:58.489Z,-6.56
2022-12-17T14:21:27.432Z,-6.56
2022-12-17T14:23:54.597Z,-6.48
2022-12-17T14:26:21.696Z,-6.55
2022-12-17T14:28:54.042Z,-6.68
2022-12-17T14:31:29.018Z,-6.73
2022-12-17T14:34:08.079Z,-6.67
2022-12-17T14:36:43.074Z,-6.75
2022-12-17T14:39:31.975Z,-6.79
2022-12-17T14:42:25.410Z,-6.85
2022-12-17T14:45:06.321Z,-6.91
2022-12-17T14:47:34.771Z,-6.95
2022-12-17T14:50:01.291Z,-7.01
2022-12-17T14:52:33.146Z,-7.04
2022-12-17T14:54:59.828Z,-7.11
2022-12-17T14:57:26.447Z,-7.15
2022-12-17T14:59:53.179Z,-7.20
2022-12-17T15:02:23.711Z,-7.24
2022-12-17T15:04:52.153Z,-7.20
2022-12-17T15:07:25.371Z,-7.17
2022-12-17T15:09:53.311Z,-7.17
2022-12-17T15:12:21.022Z,-7.08
2022-12-17T15:14:47.848Z,-7.03
2022-12-17T15:17:15.161Z,-7.12
2022-12-17T15:19:42.049Z,-7.01
2022-12-17T15:22:16.435Z,-6.70
2022-12-17T15:24:44.446Z,-6.65
2022-12-17T15:27:16.201Z,-6.85
2022-12-17T15:29:43.759Z,-7.00
2022-12-17T15:32:22.922Z,-6.88
2022-12-17T15:34:50.459Z,-6.80
2022-12-17T15:37:19.840Z,-6.61
2022-12-17T15:39:47.772Z,-6.48
2022-12-17T15:42:32.927Z,-6.62
2022-12-17T15:44:59.484Z,-6.54
2022-12-17T15:47:26.046Z,-6.53
2022-12-17T15:49:52.720Z,-6.54
2022-12-17T15:52:22.196Z,-6.62
2022-12-17T15:54:49.439Z,-6.57
2022-12-17T15:57:18.725Z,-6.47
2022-12-17T15:59:45.717Z,-6.30
2022-12-17T16:02:12.973Z,-6.30
2022-12-17T16:04:41.136Z,-6.41
2022-12-17T16:07:07.809Z,-6.39
2022-12-17T16:09:34.495Z,-6.30
2022-12-17T16:12:01.175Z,-6.16
2022-12-17T16:14:27.700Z,-5.93
2022-12-17T16:16:54.371Z,-5.82
2022-12-17T16:19:23.914Z,-5.99
2022-12-17T16:21:50.583Z,-6.29
2022-12-17T16:24:17.726Z,-6.37
2022-12-17T16:26:44.370Z,-6.55
2022-12-17T16:29:11.022Z,-6.64
2022-12-17T16:31:37.699Z,-6.43
2022-12-17T16:34:08.773Z,-6.28
2022-12-17T16:36:35.613Z,-6.32
2022-12-17T16:39:02.246Z,-6.42
2022-12-17T16:41:28.880Z,-6.40
2022-12-17T16:43:55.542Z,-6.46
2022-12-17T16:46:28.282Z,-6.34
2022-12-17T16:48:56.023Z,-6.45
2022-12-17T16:51:29.002Z,-6.32
2022-12-17T16:53:57.270Z,-6.24
2022-12-17T16:56:27.178Z,-6.08
2022-12-17T16:58:54.590Z,-6.11
2022-12-17T17:01:23.231Z,-5.71
2022-12-17T17:06:39.702Z,-5.68
2022-12-17T17:09:06.503Z,-5.92
2022-12-17T17:11:33.194Z,-5.91
2022-12-17T17:14:00.314Z,-6.01
2022-12-17T17:16:27.158Z,-6.17
2022-12-17T17:18:54.500Z,-6.08
2022-12-17T17:21:24.315Z,-6.13
2022-12-17T17:24:03.233Z,-5.85
2022-12-17T17:26:33.456Z,-5.74
2022-12-17T17:29:00.521Z,-5.74
2022-12-17T17:32:01.152Z,-5.72
2022-12-17T17:34:15.233Z,-5.57
2022-12-17T17:36:42.313Z,-5.62
2022-12-17T17:39:08.987Z,-5.78
2022-12-17T17:41:36.458Z,-5.79
2022-12-17T17:44:05.943Z,-5.84
2022-12-17T17:46:33.686Z,-5.75
2022-12-17T17:49:02.234Z,-5.88
2022-12-17T17:52:07.839Z,-5.77
2022-12-17T17:54:20.383Z,-5.57
2022-12-17T17:56:47.034Z,-5.64
2022-12-17T17:59:17.831Z,-5.78
2022-12-17T18:01:47.933Z,-5.84
2022-12-17T18:04:17.283Z,-5.97
2022-12-17T18:07:02.584Z,-5.69
2022-12-17T18:09:31.779Z,-5.93
2022-12-17T18:12:18.395Z,-5.97
2022-12-17T18:15:11.925Z,-6.04
2022-12-17T18:17:31.577Z,-5.91
2022-12-17T18:19:58.142Z,-6.04
2022-12-17T18:22:24.793Z,-5.90
2022-12-17T18:24:51.399Z,-6.01
2022-12-17T18:27:18.068Z,-6.24
2022-12-17T18:29:44.785Z,-6.31
2022-12-17T18:32:11.445Z,-6.37
2022-12-17T18:34:38.834Z,-6.39
2022-12-17T18:37:05.495Z,-6.51
2022-12-17T18:39:33.006Z,-6.57
2022-12-17T18:42:18.370Z,-6.65
2022-12-17T18:44:45.028Z,-6.75
2022-12-17T18:47:11.677Z,-6.82
2022-12-17T18:49:39.103Z,-6.91
2022-12-17T18:52:05.856Z,-6.93
2022-12-17T18:54:33.858Z,-6.98
2022-12-17T18:57:01.934Z,-7.07
2022-12-17T18:59:30.192Z,-7.05
2022-12-17T19:01:57.734Z,-7.08
2022-12-17T19:04:25.511Z,-6.85
2022-12-17T19:06:53.673Z,-6.71
2022-12-17T19:09:20.507Z,-6.80
2022-12-17T19:11:47.377Z,-6.92
2022-12-17T19:14:14.143Z,-6.82
2022-12-17T19:16:40.893Z,-6.92
2022-12-17T19:19:07.556Z,-6.99
2022-12-17T19:21:34.506Z,-7.00
2022-12-17T19:24:03.773Z,-6.47
2022-12-17T19:26:31.164Z,-6.57
2022-12-17T19:28:59.124Z,-6.59
2022-12-17T19:31:28.289Z,-6.66
2022-12-17T19:33:56.252Z,-6.29
2022-12-17T19:36:28.038Z,-6.45
2022-12-17T19:38:56.846Z,-6.29
2022-12-17T19:41:24.163Z,-6.28
2022-12-17T19:43:55.867Z,-6.30
2022-12-17T19:46:23.306Z,-6.30
2022-12-17T19:48:50.887Z,-6.09
2022-12-17T19:51:20.777Z,-6.37
2022-12-17T19:53:47.927Z,-6.43
2022-12-17T19:56:29.141Z,-6.18
2022-12-17T19:59:02.104Z,-6.25
2022-12-17T20:01:33.714Z,-6.09
2022-12-17T20:04:00.542Z,-6.27
2022-12-17T20:06:30.010Z,-6.05
2022-12-17T20:09:01.712Z,-6.29
2022-12-17T20:11:34.930Z,-6.21
2022-12-17T20:14:15.618Z,-6.10
2022-12-17T20:16:47.400Z,-6.21
2022-12-17T20:19:22.782Z,-6.26
2022-12-17T20:21:49.906Z,-6.08
2022-12-17T20:24:16.928Z,-6.09
2022-12-17T20:26:45.354Z,-6.31
2022-12-17T20:29:12.430Z,-6.31
2022-12-17T20:31:39.163Z,-6.36
2022-12-17T20:34:07.222Z,-6.50
2022-12-17T20:36:34.168Z,-6.43
2022-12-17T20:39:01.104Z,-6.60
2022-12-17T20:41:29.392Z,-6.27
2022-12-17T20:43:56.733Z,-6.48
2022-12-17T20:46:24.837Z,-6.51
2022-12-17T20:48:51.952Z,-6.39
2022-12-17T20:51:24.471Z,-6.67
2022-12-17T20:53:52.421Z,-6.76
2022-12-17T20:56:23.448Z,-6.53
2022-12-17T20:58:58.892Z,-6.31
2022-12-17T21:01:27.089Z,-6.23
2022-12-17T21:03:54.888Z,-6.43
2022-12-17T21:06:28.754Z,-6.44
2022-12-17T21:08:55.871Z,-6.49
2022-12-17T21:11:28.014Z,-6.55
2022-12-17T21:13:55.054Z,-6.66
2022-12-17T21:16:27.851Z,-6.75
2022-12-17T21:18:55.923Z,-6.61
2022-12-17T21:21:25.038Z,-6.59
2022-12-17T21:23:53.078Z,-6.49
2022-12-17T21:26:22.207Z,-6.39
2022-12-17T21:28:51.690Z,-6.35
2022-12-17T21:31:27.075Z,-6.31
2022-12-17T21:33:57.271Z,-6.44
2022-12-17T21:36:25.232Z,-6.53
2022-12-17T21:38:52.658Z,-6.59
2022-12-17T21:41:22.126Z,-6.40
2022-12-17T21:43:59.408Z,-6.59
2022-12-17T21:46:27.340Z,-6.63
2022-12-17T21:48:54.897Z,-6.33
2022-12-17T21:51:21.977Z,-6.45
2022-12-17T21:53:52.962Z,-6.37
2022-12-17T21:56:19.668Z,-6.45
2022-12-17T21:58:47.197Z,-6.47
2022-12-17T22:01:20.046Z,-6.55
2022-12-17T22:03:50.242Z,-6.55
2022-12-17T22:06:22.510Z,-6.57
2022-12-17T22:08:53.334Z,-6.58
2022-12-17T22:11:24.960Z,-6.41
2022-12-17T22:14:15.311Z,-6.60
2022-12-17T22:16:48.222Z,-6.73
2022-12-17T22:19:16.410Z,-6.42
2022-12-17T22:21:45.051Z,-6.57
2022-12-17T22:24:19.720Z,-6.53
2022-12-17T22:26:46.946Z,-6.43
2022-12-17T22:29:34.381Z,-6.55
2022-12-17T22:32:19.626Z,-6.70
2022-12-17T22:36:11.362Z,-6.64
2022-12-17T22:40:14.480Z,-6.66
2022-12-17T22:44:33.364Z,-6.49
2022-12-17T22:44:42.207Z,-6.50
2022-12-17T22:46:16.234Z,-6.47
2022-12-17T22:48:42.899Z,-6.31
2022-12-17T22:51:17.833Z,-6.35
2022-12-17T22:53:53.857Z,-6.59
2022-12-17T22:56:43.157Z,-6.52
2022-12-17T22:59:08.051Z,-6.60
2022-12-17T23:01:35.233Z,-6.57
2022-12-17T23:04:03.690Z,-6.61
2022-12-17T23:06:30.506Z,-6.59
2022-12-17T23:08:57.584Z,-6.78
2022-12-17T23:11:26.100Z,-6.69
2022-12-17T23:13:53.706Z,-6.68
2022-12-17T23:16:20.477Z,-6.81
2022-12-17T23:18:50.598Z,-6.83
2022-12-17T23:21:23.893Z,-7.00
2022-12-17T23:23:55.120Z,-7.19
2022-12-17T23:26:30.368Z,-7.16
2022-12-17T23:29:01.777Z,-6.82
2022-12-17T23:31:32.323Z,-6.86
2022-12-17T23:33:58.948Z,-6.78
2022-12-17T23:36:26.499Z,-6.64
2022-12-17T23:38:55.542Z,-6.75
2022-12-17T23:41:27.296Z,-6.93
2022-12-17T23:43:54.376Z,-7.00
2022-12-17T23:46:23.131Z,-6.91
2022-12-17T23:48:50.297Z,-7.01
2022-12-17T23:51:22.737Z,-7.03
2022-12-17T23:53:49.665Z,-7.03
2022-12-17T23:56:24.463Z,-7.20
2022-12-17T23:58:59.389Z,-7.26
